sensor_id;sensor_type;location;lat;lon;timestamp;temperature;humidity
45383;DHT22;42455;51.660;5.824;2022-10-31T00:02:15;16.3;95.5
45383;DHT22;42455;51.660;5.824;2022-10-31T00:07:21;16.3;95.5
45383;DHT22;42455;51.660;5.824;2022-10-31T00:12:27;16.2;95.5
45383;DHT22;42455;51.660;5.824;2022-10-31T00:17:34;16.2;95.5
45383;DHT22;42455;51.660;5.824;2022-10-31T00:22:40;16.1;96.0
45383;DHT22;42455;51.660;5.824;2022-10-31T00:27:46;16.1;95.5
45383;DHT22;42455;51.660;5.824;2022-10-31T00:32:52;16.0;96.0
45383;DHT22;42455;51.660;5.824;2022-10-31T00:37:58;16.0;96.0
45383;DHT22;42455;51.660;5.824;2022-10-31T00:43:04;15.9;96.0
45383;DHT22;42455;51.660;5.824;2022-10-31T00:48:09;15.8;96.0
45383;DHT22;42455;51.660;5.824;2022-10-31T00:53:15;15.8;96.0
45383;DHT22;42455;51.660;5.824;2022-10-31T00:58:21;15.7;95.5
45383;DHT22;42455;51.660;5.824;2022-10-31T01:03:30;15.6;96.0
45383;DHT22;42455;51.660;5.824;2022-10-31T01:08:34;15.5;95.5
45383;DHT22;42455;51.660;5.824;2022-10-31T01:13:40;15.3;95.5
45383;DHT22;42455;51.660;5.824;2022-10-31T01:18:47;15.2;95.5
45383;DHT22;42455;51.660;5.824;2022-10-31T01:23:54;15.1;95.5
45383;DHT22;42455;51.660;5.824;2022-10-31T01:29:00;15.0;95.5
45383;DHT22;42455;51.660;5.824;2022-10-31T01:34:06;14.9;95.5
45383;DHT22;42455;51.660;5.824;2022-10-31T01:39:13;14.8;95.5
45383;DHT22;42455;51.660;5.824;2022-10-31T01:44:52;14.7;95.5
45383;DHT22;42455;51.660;5.824;2022-10-31T01:49:27;14.7;96.0
45383;DHT22;42455;51.660;5.824;2022-10-31T01:54:33;14.6;96.0
45383;DHT22;42455;51.660;5.824;2022-10-31T01:59:40;14.6;96.0
45383;DHT22;42455;51.660;5.824;2022-10-31T02:04:42;14.5;96.5
45383;DHT22;42455;51.660;5.824;2022-10-31T02:09:50;14.5;96.5
45383;DHT22;42455;51.660;5.824;2022-10-31T02:14:55;14.4;96.0
45383;DHT22;42455;51.660;5.824;2022-10-31T02:20:09;14.4;96.0
45383;DHT22;42455;51.660;5.824;2022-10-31T02:26:07;14.3;96.0
45383;DHT22;42455;51.660;5.824;2022-10-31T02:30:52;14.3;96.0
45383;DHT22;42455;51.660;5.824;2022-10-31T02:35:24;14.2;96.0
45383;DHT22;42455;51.660;5.824;2022-10-31T02:40:35;14.2;96.0
45383;DHT22;42455;51.660;5.824;2022-10-31T02:45:35;14.1;96.5
45383;DHT22;42455;51.660;5.824;2022-10-31T02:50:39;14.1;96.5
45383;DHT22;42455;51.660;5.824;2022-10-31T02:55:59;14.0;96.5
45383;DHT22;42455;51.660;5.824;2022-10-31T03:00:57;14.0;96.5
45383;DHT22;42455;51.660;5.824;2022-10-31T03:06:00;13.9;96.5
45383;DHT22;42455;51.660;5.824;2022-10-31T03:11:03;13.9;96.5
45383;DHT22;42455;51.660;5.824;2022-10-31T03:16:10;13.8;96.5
45383;DHT22;42455;51.660;5.824;2022-10-31T03:21:16;13.8;97.0
45383;DHT22;42455;51.660;5.824;2022-10-31T03:26:21;13.7;96.5
45383;DHT22;42455;51.660;5.824;2022-10-31T03:31:28;13.6;96.5
45383;DHT22;42455;51.660;5.824;2022-10-31T03:36:34;13.6;97.0
45383;DHT22;42455;51.660;5.824;2022-10-31T03:41:53;13.5;97.0
45383;DHT22;42455;51.660;5.824;2022-10-31T03:46:45;13.5;97.0
45383;DHT22;42455;51.660;5.824;2022-10-31T03:52:12;13.5;97.0
45383;DHT22;42455;51.660;5.824;2022-10-31T03:57:01;13.5;97.0
45383;DHT22;42455;51.660;5.824;2022-10-31T04:02:10;13.4;97.0
45383;DHT22;42455;51.660;5.824;2022-10-31T04:07:10;13.4;97.0
45383;DHT22;42455;51.660;5.824;2022-10-31T04:12:16;13.4;97.0
45383;DHT22;42455;51.660;5.824;2022-10-31T04:17:23;13.3;97.0
45383;DHT22;42455;51.660;5.824;2022-10-31T04:22:28;13.3;97.0
45383;DHT22;42455;51.660;5.824;2022-10-31T04:27:34;13.2;97.0
45383;DHT22;42455;51.660;5.824;2022-10-31T04:32:40;13.1;97.0
45383;DHT22;42455;51.660;5.824;2022-10-31T04:42:52;13.0;97.0
45383;DHT22;42455;51.660;5.824;2022-10-31T04:47:57;12.9;97.0
45383;DHT22;42455;51.660;5.824;2022-10-31T04:53:03;12.9;97.0
45383;DHT22;42455;51.660;5.824;2022-10-31T04:58:09;12.8;97.0
45383;DHT22;42455;51.660;5.824;2022-10-31T05:03:15;12.8;97.0
45383;DHT22;42455;51.660;5.824;2022-10-31T05:08:21;12.8;97.5
45383;DHT22;42455;51.660;5.824;2022-10-31T05:13:27;12.8;97.5
45383;DHT22;42455;51.660;5.824;2022-10-31T05:18:33;12.8;97.0
45383;DHT22;42455;51.660;5.824;2022-10-31T05:28:46;12.7;97.0
45383;DHT22;42455;51.660;5.824;2022-10-31T05:33:52;12.6;97.0
45383;DHT22;42455;51.660;5.824;2022-10-31T05:38:58;12.5;97.0
45383;DHT22;42455;51.660;5.824;2022-10-31T05:44:04;12.5;97.0
45383;DHT22;42455;51.660;5.824;2022-10-31T05:49:10;12.5;97.0
45383;DHT22;42455;51.660;5.824;2022-10-31T05:54:17;12.4;97.0
45383;DHT22;42455;51.660;5.824;2022-10-31T05:59:23;12.4;97.0
45383;DHT22;42455;51.660;5.824;2022-10-31T06:04:29;12.3;97.0
45383;DHT22;42455;51.660;5.824;2022-10-31T06:09:35;12.2;97.0
45383;DHT22;42455;51.660;5.824;2022-10-31T06:14:42;12.2;97.0
45383;DHT22;42455;51.660;5.824;2022-10-31T06:19:48;12.1;97.0
45383;DHT22;42455;51.660;5.824;2022-10-31T06:24:54;12.0;97.0
45383;DHT22;42455;51.660;5.824;2022-10-31T06:30:00;12.0;97.0
45383;DHT22;42455;51.660;5.824;2022-10-31T06:35:07;11.9;97.0
45383;DHT22;42455;51.660;5.824;2022-10-31T06:40:13;11.9;97.0
45383;DHT22;42455;51.660;5.824;2022-10-31T06:45:19;11.9;97.0
45383;DHT22;42455;51.660;5.824;2022-10-31T06:50:25;11.9;97.5
45383;DHT22;42455;51.660;5.824;2022-10-31T06:55:30;11.9;97.5
45383;DHT22;42455;51.660;5.824;2022-10-31T07:00:37;11.9;97.5
45383;DHT22;42455;51.660;5.824;2022-10-31T07:05:43;11.9;97.5
45383;DHT22;42455;51.660;5.824;2022-10-31T07:10:53;11.9;98.0
45383;DHT22;42455;51.660;5.824;2022-10-31T07:15:59;12.0;98.0
45383;DHT22;42455;51.660;5.824;2022-10-31T07:21:00;12.1;98.0
45383;DHT22;42455;51.660;5.824;2022-10-31T07:26:07;12.1;98.5
45383;DHT22;42455;51.660;5.824;2022-10-31T07:31:13;12.2;98.5
45383;DHT22;42455;51.660;5.824;2022-10-31T07:36:19;12.3;98.5
45383;DHT22;42455;51.660;5.824;2022-10-31T07:41:25;12.3;98.5
45383;DHT22;42455;51.660;5.824;2022-10-31T07:46:31;12.4;98.5
45383;DHT22;42455;51.660;5.824;2022-10-31T07:51:38;12.4;98.5
45383;DHT22;42455;51.660;5.824;2022-10-31T07:56:43;12.5;98.5
45383;DHT22;42455;51.660;5.824;2022-10-31T08:01:49;12.6;98.5
45383;DHT22;42455;51.660;5.824;2022-10-31T08:06:55;12.7;98.5
45383;DHT22;42455;51.660;5.824;2022-10-31T08:12:01;12.8;98.5
45383;DHT22;42455;51.660;5.824;2022-10-31T08:17:08;12.9;98.5
45383;DHT22;42455;51.660;5.824;2022-10-31T08:22:14;13.0;98.5
45383;DHT22;42455;51.660;5.824;2022-10-31T08:27:20;13.2;98.5
45383;DHT22;42455;51.660;5.824;2022-10-31T08:32:26;13.3;98.5
45383;DHT22;42455;51.660;5.824;2022-10-31T08:37:32;13.4;98.5
45383;DHT22;42455;51.660;5.824;2022-10-31T08:42:39;13.6;98.5
45383;DHT22;42455;51.660;5.824;2022-10-31T08:47:45;13.8;98.5
45383;DHT22;42455;51.660;5.824;2022-10-31T08:52:51;14.0;98.5
45383;DHT22;42455;51.660;5.824;2022-10-31T08:57:57;14.3;98.5
45383;DHT22;42455;51.660;5.824;2022-10-31T09:03:04;14.5;98.5
45383;DHT22;42455;51.660;5.824;2022-10-31T09:08:09;14.8;98.5
45383;DHT22;42455;51.660;5.824;2022-10-31T09:13:18;15.0;98.5
45383;DHT22;42455;51.660;5.824;2022-10-31T09:18:22;15.3;98.5
45383;DHT22;42455;51.660;5.824;2022-10-31T09:23:27;15.5;98.5
45383;DHT22;42455;51.660;5.824;2022-10-31T09:28:33;15.6;98.5
45383;DHT22;42455;51.660;5.824;2022-10-31T09:33:39;15.8;98.5
45383;DHT22;42455;51.660;5.824;2022-10-31T09:38:45;15.9;98.5
45383;DHT22;42455;51.660;5.824;2022-10-31T09:44:07;16.0;98.5
45383;DHT22;42455;51.660;5.824;2022-10-31T09:49:12;16.2;98.5
45383;DHT22;42455;51.660;5.824;2022-10-31T09:54:06;16.4;98.5
45383;DHT22;42455;51.660;5.824;2022-10-31T09:59:13;16.6;98.5
45383;DHT22;42455;51.660;5.824;2022-10-31T10:04:19;16.8;98.5
45383;DHT22;42455;51.660;5.824;2022-10-31T10:09:26;16.9;98.5
45383;DHT22;42455;51.660;5.824;2022-10-31T10:15:05;17.1;98.5
45383;DHT22;42455;51.660;5.824;2022-10-31T10:20:01;17.1;98.5
45383;DHT22;42455;51.660;5.824;2022-10-31T10:25:14;17.2;98.5
45383;DHT22;42455;51.660;5.824;2022-10-31T10:29:50;17.3;98.5
45383;DHT22;42455;51.660;5.824;2022-10-31T10:40:08;17.7;98.5
45383;DHT22;42455;51.660;5.824;2022-10-31T10:45:13;17.9;98.5
45383;DHT22;42455;51.660;5.824;2022-10-31T10:50:15;18.1;98.5
45383;DHT22;42455;51.660;5.824;2022-10-31T10:55:24;18.3;98.5
45383;DHT22;42455;51.660;5.824;2022-10-31T11:00:26;18.5;98.5
45383;DHT22;42455;51.660;5.824;2022-10-31T11:10:36;18.7;98.0
45383;DHT22;42455;51.660;5.824;2022-10-31T11:15:56;18.8;97.5
45383;DHT22;42455;51.660;5.824;2022-10-31T11:25:56;19.0;97.0
45383;DHT22;42455;51.660;5.824;2022-10-31T11:31:05;19.1;96.5
45383;DHT22;42455;51.660;5.824;2022-10-31T11:36:21;19.2;96.5
45383;DHT22;42455;51.660;5.824;2022-10-31T11:41:13;19.2;96.5
45383;DHT22;42455;51.660;5.824;2022-10-31T11:46:22;19.3;96.0
45383;DHT22;42455;51.660;5.824;2022-10-31T11:51:28;19.3;96.0
45383;DHT22;42455;51.660;5.824;2022-10-31T11:56:38;19.4;96.0
45383;DHT22;42455;51.660;5.824;2022-10-31T12:01:40;19.5;95.5
45383;DHT22;42455;51.660;5.824;2022-10-31T12:06:45;19.7;95.0
45383;DHT22;42455;51.660;5.824;2022-10-31T12:12:10;19.9;94.5
45383;DHT22;42455;51.660;5.824;2022-10-31T12:17:03;20.0;94.0
45383;DHT22;42455;51.660;5.824;2022-10-31T12:22:20;20.1;93.5
45383;DHT22;42455;51.660;5.824;2022-10-31T12:27:36;20.1;93.0
45383;DHT22;42455;51.660;5.824;2022-10-31T12:32:20;20.2;92.5
45383;DHT22;42455;51.660;5.824;2022-10-31T12:38:02;20.2;92.5
45383;DHT22;42455;51.660;5.824;2022-10-31T12:42:43;20.3;92.5
45383;DHT22;42455;51.660;5.824;2022-10-31T12:48:06;20.2;92.0
45383;DHT22;42455;51.660;5.824;2022-10-31T12:53:06;20.2;92.0
45383;DHT22;42455;51.660;5.824;2022-10-31T12:57:51;20.2;91.5
45383;DHT22;42455;51.660;5.824;2022-10-31T13:02:54;20.2;91.0
45383;DHT22;42455;51.660;5.824;2022-10-31T13:07:59;20.2;91.0
45383;DHT22;42455;51.660;5.824;2022-10-31T13:13:10;20.2;90.5
45383;DHT22;42455;51.660;5.824;2022-10-31T13:18:14;20.2;90.5
45383;DHT22;42455;51.660;5.824;2022-10-31T13:23:24;20.2;90.5
45383;DHT22;42455;51.660;5.824;2022-10-31T13:28:26;20.2;90.0
45383;DHT22;42455;51.660;5.824;2022-10-31T13:33:34;20.1;90.0
45383;DHT22;42455;51.660;5.824;2022-10-31T13:38:36;20.0;90.0
45383;DHT22;42455;51.660;5.824;2022-10-31T13:44:10;19.9;90.0
45383;DHT22;42455;51.660;5.824;2022-10-31T13:48:45;19.9;90.5
45383;DHT22;42455;51.660;5.824;2022-10-31T13:53:59;19.8;90.5
45383;DHT22;42455;51.660;5.824;2022-10-31T13:59:02;19.8;91.0
45383;DHT22;42455;51.660;5.824;2022-10-31T14:04:07;19.8;90.5
45383;DHT22;42455;51.660;5.824;2022-10-31T14:09:27;19.8;90.5
45383;DHT22;42455;51.660;5.824;2022-10-31T14:14:17;19.8;90.5
45383;DHT22;42455;51.660;5.824;2022-10-31T14:19:23;19.8;91.0
45383;DHT22;42455;51.660;5.824;2022-10-31T14:24:33;19.8;91.0
45383;DHT22;42455;51.660;5.824;2022-10-31T14:29:35;19.9;91.0
45383;DHT22;42455;51.660;5.824;2022-10-31T14:34:52;19.9;91.5
45383;DHT22;42455;51.660;5.824;2022-10-31T14:40:02;19.8;91.5
45383;DHT22;42455;51.660;5.824;2022-10-31T14:45:37;19.8;91.5
45383;DHT22;42455;51.660;5.824;2022-10-31T14:50:40;19.8;91.5
45383;DHT22;42455;51.660;5.824;2022-10-31T14:55:10;19.8;92.0
45383;DHT22;42455;51.660;5.824;2022-10-31T15:00:16;19.8;92.0
45383;DHT22;42455;51.660;5.824;2022-10-31T15:05:19;19.8;92.0
45383;DHT22;42455;51.660;5.824;2022-10-31T15:10:28;19.8;92.0
45383;DHT22;42455;51.660;5.824;2022-10-31T15:15:30;19.7;92.0
45383;DHT22;42455;51.660;5.824;2022-10-31T15:20:44;19.7;92.0
45383;DHT22;42455;51.660;5.824;2022-10-31T15:25:43;19.6;92.0
45383;DHT22;42455;51.660;5.824;2022-10-31T15:30:51;19.6;92.5
45383;DHT22;42455;51.660;5.824;2022-10-31T15:35:56;19.5;92.5
45383;DHT22;42455;51.660;5.824;2022-10-31T15:41:02;19.5;92.5
45383;DHT22;42455;51.660;5.824;2022-10-31T15:46:07;19.4;92.5
45383;DHT22;42455;51.660;5.824;2022-10-31T15:51:13;19.3;92.5
45383;DHT22;42455;51.660;5.824;2022-10-31T15:56:21;19.2;92.5
45383;DHT22;42455;51.660;5.824;2022-10-31T16:01:27;19.1;92.5
45383;DHT22;42455;51.660;5.824;2022-10-31T16:06:32;19.0;93.0
45383;DHT22;42455;51.660;5.824;2022-10-31T16:11:38;18.9;93.0
45383;DHT22;42455;51.660;5.824;2022-10-31T16:16:45;18.7;93.0
45383;DHT22;42455;51.660;5.824;2022-10-31T16:21:54;18.7;93.0
45383;DHT22;42455;51.660;5.824;2022-10-31T16:27:00;18.6;93.5
45383;DHT22;42455;51.660;5.824;2022-10-31T16:32:02;18.4;93.5
45383;DHT22;42455;51.660;5.824;2022-10-31T16:37:08;18.4;93.5
45383;DHT22;42455;51.660;5.824;2022-10-31T16:42:15;18.3;93.5
45383;DHT22;42455;51.660;5.824;2022-10-31T16:47:21;18.2;93.5
45383;DHT22;42455;51.660;5.824;2022-10-31T16:52:27;18.1;93.5
45383;DHT22;42455;51.660;5.824;2022-10-31T16:57:34;18.0;93.5
45383;DHT22;42455;51.660;5.824;2022-10-31T17:02:40;17.9;93.5
45383;DHT22;42455;51.660;5.824;2022-10-31T17:07:46;17.8;93.5
45383;DHT22;42455;51.660;5.824;2022-10-31T17:12:53;17.7;93.5
45383;DHT22;42455;51.660;5.824;2022-10-31T17:17:57;17.7;93.5
45383;DHT22;42455;51.660;5.824;2022-10-31T17:23:03;17.6;93.5
45383;DHT22;42455;51.660;5.824;2022-10-31T17:28:10;17.6;93.5
45383;DHT22;42455;51.660;5.824;2022-10-31T17:33:15;17.7;93.5
45383;DHT22;42455;51.660;5.824;2022-10-31T17:38:21;17.7;93.5
45383;DHT22;42455;51.660;5.824;2022-10-31T17:43:27;17.7;93.5
45383;DHT22;42455;51.660;5.824;2022-10-31T17:48:34;17.7;93.5
45383;DHT22;42455;51.660;5.824;2022-10-31T17:53:39;17.7;93.0
45383;DHT22;42455;51.660;5.824;2022-10-31T17:58:46;17.7;93.0
45383;DHT22;42455;51.660;5.824;2022-10-31T18:03:52;17.7;93.0
45383;DHT22;42455;51.660;5.824;2022-10-31T18:09:01;17.7;92.5
45383;DHT22;42455;51.660;5.824;2022-10-31T18:14:04;17.7;92.5
45383;DHT22;42455;51.660;5.824;2022-10-31T18:19:12;17.7;92.5
45383;DHT22;42455;51.660;5.824;2022-10-31T18:24:17;17.6;92.5
45383;DHT22;42455;51.660;5.824;2022-10-31T18:29:23;17.6;92.0
45383;DHT22;42455;51.660;5.824;2022-10-31T18:34:29;17.5;92.0
45383;DHT22;42455;51.660;5.824;2022-10-31T18:39:35;17.4;92.0
45383;DHT22;42455;51.660;5.824;2022-10-31T18:44:42;17.4;92.0
45383;DHT22;42455;51.660;5.824;2022-10-31T18:49:48;17.4;92.0
45383;DHT22;42455;51.660;5.824;2022-10-31T18:54:54;17.4;92.0
45383;DHT22;42455;51.660;5.824;2022-10-31T19:00:00;17.4;92.0
45383;DHT22;42455;51.660;5.824;2022-10-31T19:05:06;17.4;92.0
45383;DHT22;42455;51.660;5.824;2022-10-31T19:10:13;17.3;92.0
45383;DHT22;42455;51.660;5.824;2022-10-31T19:15:18;17.3;92.0
45383;DHT22;42455;51.660;5.824;2022-10-31T19:20:24;17.2;92.0
45383;DHT22;42455;51.660;5.824;2022-10-31T19:25:29;17.2;92.5
45383;DHT22;42455;51.660;5.824;2022-10-31T19:30:35;17.1;92.5
45383;DHT22;42455;51.660;5.824;2022-10-31T19:35:42;17.1;92.5
45383;DHT22;42455;51.660;5.824;2022-10-31T19:40:48;17.0;92.5
45383;DHT22;42455;51.660;5.824;2022-10-31T19:45:55;17.0;92.5
45383;DHT22;42455;51.660;5.824;2022-10-31T19:51:01;16.9;92.5
45383;DHT22;42455;51.660;5.824;2022-10-31T19:56:10;16.8;92.5
45383;DHT22;42455;51.660;5.824;2022-10-31T20:01:15;16.8;92.5
45383;DHT22;42455;51.660;5.824;2022-10-31T20:06:21;16.7;92.5
45383;DHT22;42455;51.660;5.824;2022-10-31T20:11:26;16.7;92.5
45383;DHT22;42455;51.660;5.824;2022-10-31T20:16:32;16.6;92.5
45383;DHT22;42455;51.660;5.824;2022-10-31T20:21:39;16.6;92.5
45383;DHT22;42455;51.660;5.824;2022-10-31T20:26:44;16.6;92.5
45383;DHT22;42455;51.660;5.824;2022-10-31T20:31:50;16.6;93.0
45383;DHT22;42455;51.660;5.824;2022-10-31T20:36:56;16.6;93.0
45383;DHT22;42455;51.660;5.824;2022-10-31T20:42:03;16.6;92.5
45383;DHT22;42455;51.660;5.824;2022-10-31T20:47:09;16.6;92.5
45383;DHT22;42455;51.660;5.824;2022-10-31T20:52:15;16.6;92.5
45383;DHT22;42455;51.660;5.824;2022-10-31T20:57:21;16.6;92.5
45383;DHT22;42455;51.660;5.824;2022-10-31T21:02:27;16.6;92.5
45383;DHT22;42455;51.660;5.824;2022-10-31T21:07:34;16.6;92.5
45383;DHT22;42455;51.660;5.824;2022-10-31T21:12:40;16.5;92.5
45383;DHT22;42455;51.660;5.824;2022-10-31T21:17:45;16.5;92.5
45383;DHT22;42455;51.660;5.824;2022-10-31T21:22:51;16.5;92.5
45383;DHT22;42455;51.660;5.824;2022-10-31T21:27:57;16.5;92.5
45383;DHT22;42455;51.660;5.824;2022-10-31T21:33:04;16.5;92.5
45383;DHT22;42455;51.660;5.824;2022-10-31T21:38:10;16.5;92.5
45383;DHT22;42455;51.660;5.824;2022-10-31T21:43:16;16.5;92.5
45383;DHT22;42455;51.660;5.824;2022-10-31T21:48:22;16.5;92.5
45383;DHT22;42455;51.660;5.824;2022-10-31T21:53:28;16.5;92.5
45383;DHT22;42455;51.660;5.824;2022-10-31T21:58:35;16.4;92.5
45383;DHT22;42455;51.660;5.824;2022-10-31T22:03:41;16.5;92.5
45383;DHT22;42455;51.660;5.824;2022-10-31T22:08:47;16.5;92.5
45383;DHT22;42455;51.660;5.824;2022-10-31T22:13:54;16.5;92.5
45383;DHT22;42455;51.660;5.824;2022-10-31T22:19:00;16.5;92.5
45383;DHT22;42455;51.660;5.824;2022-10-31T22:24:06;16.5;92.5
45383;DHT22;42455;51.660;5.824;2022-10-31T22:29:13;16.5;92.5
45383;DHT22;42455;51.660;5.824;2022-10-31T22:34:18;16.6;92.5
45383;DHT22;42455;51.660;5.824;2022-10-31T22:39:24;16.5;92.5
45383;DHT22;42455;51.660;5.824;2022-10-31T22:44:30;16.5;92.5
45383;DHT22;42455;51.660;5.824;2022-10-31T22:49:37;16.6;92.5
45383;DHT22;42455;51.660;5.824;2022-10-31T22:54:43;16.6;92.5
45383;DHT22;42455;51.660;5.824;2022-10-31T22:59:48;16.6;92.5
45383;DHT22;42455;51.660;5.824;2022-10-31T23:04:54;16.6;92.5
45383;DHT22;42455;51.660;5.824;2022-10-31T23:10:00;16.7;92.5
45383;DHT22;42455;51.660;5.824;2022-10-31T23:15:06;16.8;92.5
45383;DHT22;42455;51.660;5.824;2022-10-31T23:20:11;16.9;92.5
45383;DHT22;42455;51.660;5.824;2022-10-31T23:25:17;16.9;92.5
45383;DHT22;42455;51.660;5.824;2022-10-31T23:30:23;17.0;92.5
45383;DHT22;42455;51.660;5.824;2022-10-31T23:35:30;17.0;92.5
45383;DHT22;42455;51.660;5.824;2022-10-31T23:40:36;17.1;92.5
45383;DHT22;42455;51.660;5.824;2022-10-31T23:45:42;17.2;92.0
45383;DHT22;42455;51.660;5.824;2022-10-31T23:50:48;17.2;92.0
45383;DHT22;42455;51.660;5.824;2022-10-31T23:55:55;17.2;92.0
